Latest Weather Observations for Southern Cross Airport

IDW60801

Issued at 5:23 pm WST Tuesday 22 October 2019 (issued every 10 minutes, with the page automatically refreshed every 10 minutes)

About weather observations | Map of weather stations | Latest weather observations for WA | Other Formats
Station Details ID: 012320 Name: SOUTHERN CROSS AIRFIELD Lat: -31.24 Lon: 119.36 Height: 347.4 m
Data from the previous 72 hours. | See also: Recent months at Southern Cross Airport
Date/Time
WST
Temp
°C
App
Temp
°C
Dew
Point
°C
Rel
Hum
%
Delta-T
°C
Wind Press
QNH
hPa
Press
MSL
hPa
Rain since
9am
mm
Dir  Spd
km/h
Gust
km/h
Spd
kts
Gust
kts
22/05:00pm 31.8 26.1 -3.5 10 16.4 WSW 17 22 9 12 1013.2 1012.3 0.0
22/04:30pm 32.3 27.4 -3.2 10 16.6 SSW 13 20 7 11 1013.2 1012.3 0.0
22/04:00pm 32.6 27.0 -2.9 10 16.7 NW 17 24 9 13 1013.3 1012.4 0.0
22/03:30pm 32.6 26.6 -2.9 10 16.7 WNW 19 28 10 15 1013.2 1012.3 0.0
22/03:00pm 31.7 27.1 -1.2 12 15.8 WNW 13 20 7 11 1013.4 1012.5 0.0
22/02:30pm 31.7 27.3 -2.3 11 16.1 NNE 11 19 6 10 1013.6 1012.7 0.0
22/02:00pm 31.7 26.8 -3.6 10 16.3 NNW 13 24 7 13 1014.1 1013.2 0.0
22/01:30pm 31.7 26.9 -0.1 13 15.6 NW 15 28 8 15 1014.4 1013.5 0.0
22/01:00pm 31.5 27.1 2.7 16 14.8 WNW 15 22 8 12 1014.9 1013.9 0.0
22/12:30pm 30.7 26.9 2.0 16 14.5 NNW 11 20 6 11 1015.3 1014.4 0.0
22/12:00pm 30.4 26.9 3.4 18 13.9 NNE 11 22 6 12 1015.7 1014.8 0.0
22/11:30am 29.4 26.4 4.1 20 13.1 NNW 9 17 5 9 1016.4 1015.5 0.0
22/11:00am 28.5 24.7 4.1 21 12.6 E 13 22 7 12 1017.0 1016.1 0.0
22/10:30am 27.1 22.7 4.8 24 11.5 ENE 17 22 9 12 1017.7 1016.8 0.0
22/10:00am 26.4 21.9 4.2 24 11.3 NE 17 28 9 15 1018.2 1017.3 0.0
22/09:30am 24.9 21.0 5.2 28 10.1 ENE 15 22 8 12 1018.5 1017.6 0.0
22/09:00am 23.0 19.2 5.9 33 8.8 ESE 15 20 8 11 1018.8 1017.9 0.0
22/08:30am 22.0 18.4 6.7 37 7.9 ESE 15 20 8 11 1018.8 1017.9 0.0
22/08:00am 19.5 16.0 7.3 45 6.3 SE 15 20 8 11 1018.9 1018.0 0.0
22/07:30am 17.2 13.5 7.8 54 4.8 SE 17 20 9 11 1019.1 1018.2 0.0
22/07:00am 15.5 12.3 8.5 63 3.6 SE 15 19 8 10 1019.2 1018.3 0.0
22/06:30am 14.2 10.7 8.6 69 2.9 SE 17 20 9 11 1019.3 1018.4 0.0
22/06:00am 13.8 10.3 8.6 71 2.7 SE 17 19 9 10 1019.0 1018.1 0.0
22/05:30am 13.4 10.5 8.3 71 2.6 SE 13 17 7 9 1018.8 1017.9 0.0
22/05:00am 13.8 10.2 8.2 69 2.8 SE 17 22 9 12 1018.5 1017.6 0.0
22/04:30am 14.2 10.1 7.9 66 3.2 SE 19 24 10 13 1018.3 1017.4 0.0
22/04:00am 14.7 11.0 8.0 64 3.4 SE 17 22 9 12 1018.2 1017.3 0.0
22/03:30am 15.5 11.8 7.8 60 3.9 ESE 17 22 9 12 1018.0 1017.1 0.0
22/03:00am 16.5 12.7 7.4 55 4.6 SE 17 24 9 13 1018.0 1017.1 0.0
22/02:30am 17.0 13.1 7.1 52 5.0 SE 17 22 9 12 1018.0 1017.1 0.0
22/02:00am 17.3 14.1 6.8 50 5.3 SE 13 17 7 9 1018.1 1017.2 0.0
22/01:30am 17.5 14.6 6.4 48 5.6 SE 11 17 6 9 1018.0 1017.1 0.0
22/01:00am 16.1 13.4 3.9 44 5.7 SE 7 11 4 6 1017.8 1016.9 0.0
22/12:30am 16.8 14.1 2.4 38 6.6 SSE 6 6 3 3 1018.0 1017.1 0.0
22/12:00am 17.3 15.0 2.5 37 6.8 SSE 4 6 2 3 1018.1 1017.2 0.0
 
Date/Time
WST
Temp
°C
App
Temp
°C
Dew
Point
°C
Rel
Hum
%
Delta-T
°C
Wind Press
QNH
hPa
Press
MSL
hPa
Rain since
9am
mm
Dir  Spd
km/h
Gust
km/h
Spd
kts
Gust
kts
21/11:30pm 18.4 15.4 1.9 33 7.6 SSE 7 11 4 6 1018.3 1017.4 0.0
21/11:00pm 19.2 15.8 1.7 31 8.1 SSE 9 13 5 7 1018.3 1017.4 0.0
21/10:30pm 18.2 14.9 -0.1 29 8.1 SE 7 13 4 7 1018.0 1017.1 0.0
21/10:00pm 20.3 15.7 1.7 29 8.7 SSE 15 17 8 9 1018.0 1017.1 0.0
21/09:30pm 21.0 16.7 1.3 27 9.2 S 13 15 7 8 1017.9 1017.0 0.0
21/09:00pm 21.7 17.0 0.8 25 9.7 S 15 19 8 10 1018.0 1017.1 0.0
21/08:30pm 21.5 17.1 0.1 24 9.8 S 13 15 7 8 1018.0 1017.1 0.0
21/08:00pm 21.5 17.2 -4.5 17 10.8 SSW 9 11 5 6 1017.8 1016.9 0.0
21/07:30pm 22.6 18.2 -6.2 14 11.7 SW 9 9 5 5 1017.4 1016.5 0.0
21/07:00pm 23.1 17.8 -7.8 12 12.3 WSW 13 15 7 8 1017.0 1016.1 0.0
21/06:30pm 25.6 21.0 -8.2 10 13.7 W 9 11 5 6 1016.7 1015.8 0.0
21/06:00pm 28.0 22.1 -9.3 8 15.1 W 15 20 8 11 1016.5 1015.6 0.0
21/05:30pm 29.3 23.2 -8.3 8 15.7 WSW 17 24 9 13 1016.3 1015.4 0.0
21/05:00pm 29.9 24.3 -6.4 9 15.7 W 15 24 8 13 1016.1 1015.2 0.0
21/04:30pm 30.7 25.4 -7.3 8 16.4 WSW 13 24 7 13 1016.0 1015.1 0.0
21/04:00pm 30.5 24.2 -5.9 9 16.0 W 19 30 10 16 1016.0 1015.1 0.0
21/03:30pm 30.8 24.7 -4.3 10 15.9 WSW 19 28 10 15 1016.1 1015.2 0.0
21/03:00pm 30.6 24.6 -3.2 11 15.6 WSW 19 30 10 16 1016.1 1015.2 0.0
21/02:30pm 31.3 24.8 -2.6 11 15.9 WSW 22 33 12 18 1016.4 1015.5 0.0
21/02:00pm 30.6 24.5 -7.4 8 16.3 W 17 32 9 17 1016.7 1015.8 0.0
21/01:30pm 31.5 25.2 -3.8 10 16.2 WSW 20 33 11 18 1017.0 1016.1 0.0
21/01:00pm 29.7 24.7 1.2 16 14.1 WNW 17 32 9 17 1017.1 1016.2 0.0
21/12:30pm 29.8 24.4 1.3 16 14.1 W 19 28 10 15 1017.4 1016.5 0.0
21/12:00pm 28.4 22.9 1.8 18 13.2 WSW 20 33 11 18 1017.5 1016.7 0.0
21/11:30am 28.5 24.8 4.7 22 12.4 W 13 20 7 11 1017.9 1017.0 0.0
21/11:00am 27.8 24.2 4.8 23 11.9 WNW 13 28 7 15 1018.3 1017.4 0.0
21/10:30am 26.3 23.0 4.7 25 11.1 WNW 11 26 6 14 1018.4 1017.5 0.0
21/10:00am 26.2 23.6 6.3 28 10.5 SW 9 17 5 9 1018.5 1017.6 0.0
21/09:30am 24.6 23.1 10.5 41 8.0 SW 9 15 5 8 1018.7 1017.8 0.0
21/09:00am 22.5 21.2 11.3 49 6.3 SSW 9 15 5 8 1018.7 1017.8 0.0
21/08:30am 20.8 19.2 11.7 56 5.1 SW 11 15 6 8 1018.6 1017.7 0.0
21/08:00am 19.7 17.4 11.7 60 4.5 S 15 19 8 10 1018.4 1017.5 0.0
21/07:30am 18.3 16.0 11.6 65 3.7 S 15 20 8 11 1018.3 1017.4 0.0
21/07:00am 17.1 15.3 10.9 67 3.4 SW 11 13 6 7 1018.2 1017.3 0.0
21/06:30am 15.4 13.1 10.4 72 2.7 SW 13 19 7 10 1018.4 1017.5 0.0
21/06:00am 12.8 10.9 7.5 70 2.6 SSW 7 11 4 6 1018.2 1017.3 0.0
21/05:30am 11.4 9.2 5.1 65 2.9 SSW 6 7 3 4 1017.9 1017.0 0.0
21/05:00am 10.5 7.7 3.3 61 3.2 SW 7 9 4 5 1017.8 1016.9 0.0
21/04:30am 11.4 9.8 4.4 62 3.2 SW 2 6 1 3 1017.7 1016.8 0.0
21/04:00am 12.0 10.0 6.3 68 2.7 SW 6 9 3 5 1017.7 1016.8 0.0
21/03:30am 12.3 10.2 5.7 64 3.1 SSW 6 9 3 5 1018.0 1017.1 0.0
21/03:00am 13.6 11.4 6.0 60 3.7 S 7 11 4 6 1017.9 1017.0 0.0
21/02:30am 14.4 11.5 6.3 58 4.0 ESE 11 13 6 7 1017.8 1016.9 0.0
21/02:00am 14.5 12.7 7.1 61 3.7 S 6 9 3 5 1017.4 1016.5 0.0
21/01:30am 15.6 14.9 7.1 57 4.3 CALM 0 4 0 2 1017.4 1016.5 0.0
21/01:00am 17.1 14.7 6.9 51 5.1 SSW 9 15 5 8 1017.2 1016.3 0.0
21/12:30am 18.2 16.0 6.4 46 5.9 SSW 7 9 4 5 1017.0 1016.1 0.0
21/12:00am 18.1 15.4 5.7 44 6.2 SW 9 11 5 6 1017.1 1016.2 0.0
 
Date/Time
WST
Temp
°C
App
Temp
°C
Dew
Point
°C
Rel
Hum
%
Delta-T
°C
Wind Press
QNH
hPa
Press
MSL
hPa
Rain since
9am
mm
Dir  Spd
km/h
Gust
km/h
Spd
kts
Gust
kts
20/11:30pm 18.9 15.0 5.4 41 6.7 SSW 15 17 8 9 1017.1 1016.2 0.0
20/11:00pm 20.4 15.5 5.2 37 7.6 SSW 20 24 11 13 1017.0 1016.1 0.0
20/10:30pm 20.9 16.5 4.5 34 8.1 SSW 17 20 9 11 1017.1 1016.2 0.0
20/10:00pm 21.7 16.8 3.9 31 8.7 SSW 19 22 10 12 1016.9 1016.0 0.0
20/09:30pm 22.4 17.4 3.5 29 9.3 WSW 19 22 10 12 1017.0 1016.1 0.0
20/09:00pm 23.8 18.4 2.6 25 10.3 WSW 20 26 11 14 1017.0 1016.1 0.0
20/08:30pm 24.5 19.0 0.8 21 11.2 WSW 19 24 10 13 1016.7 1015.8 0.0
20/08:00pm 25.4 19.5 -0.6 18 12.1 WSW 20 24 11 13 1016.3 1015.4 0.0
20/07:30pm 26.4 19.9 -2.3 15 13.0 SW 22 28 12 15 1015.8 1014.9 0.0
20/07:00pm 27.6 20.2 -3.3 13 13.9 WSW 26 35 14 19 1015.2 1014.3 0.0
20/06:30pm 28.3 21.5 -4.9 11 14.6 SW 22 32 12 17 1014.8 1013.8 0.0
20/06:00pm 29.9 21.7 -3.7 11 15.3 WSW 30 39 16 21 1014.3 1013.4 0.0
20/05:30pm 31.3 22.9 -2.6 11 15.9 W 32 46 17 25 1013.8 1012.9 0.0
20/05:00pm 32.3 23.4 -1.9 11 16.3 WSW 35 50 19 27 1013.4 1012.5 0.0
20/04:30pm 33.3 24.7 0.1 12 16.5 WSW 35 44 19 24 1013.2 1012.3 0.0
20/04:01pm 33.9 25.0 -2.0 10 17.3 W 35 54 19 29 1012.9 1012.0 0.0
20/04:00pm 33.7 24.8 -2.1 10 17.2 W 35 48 19 26 1012.9 1012.0 0.0
20/03:30pm 34.5 25.5 -2.9 9 17.8 W 35 50 19 27 1012.7 1011.8 0.0
20/03:16pm 35.4 26.5 -2.3 9 18.3 W 35 54 19 29 1012.6 1011.7 0.0
20/03:00pm 34.7 25.3 -2.8 9 17.9 W 37 50 20 27 1012.7 1011.8 0.0
20/02:37pm 36.0 27.1 -1.8 9 18.5 W 35 54 19 29 1012.7 1011.8 0.0
20/02:30pm 35.2 25.9 -2.4 9 18.2 WNW 37 54 20 29 1012.8 1011.9 0.0
20/02:14pm 35.6 25.5 -2.1 9 18.4 WNW 41 59 22 32 1013.0 1012.1 0.0
20/02:00pm 35.3 26.5 -0.9 10 17.9 W 35 50 19 27 1013.0 1012.1 0.0
20/01:32pm 35.6 27.8 -0.7 10 18.1 W 30 48 16 26 1013.1 1012.2 0.0
20/01:30pm 34.9 27.0 -1.2 10 17.7 WNW 30 46 16 25 1013.2 1012.3 0.0
20/01:21pm 35.3 27.9 -0.9 10 17.9 WNW 28 46 15 25 1013.2 1012.3 0.0
20/01:00pm 34.8 26.5 0.0 11 17.4 W 33 46 18 25 1013.5 1012.6 0.0
20/12:30pm 33.7 27.2 0.4 12 16.7 WNW 24 39 13 21 1013.8 1012.9 0.0
20/12:01pm 34.3 27.1 0.8 12 16.9 NW 28 46 15 25 1014.1 1013.2 0.0
20/12:00pm 33.8 26.6 0.5 12 16.7 NW 28 46 15 25 1014.1 1013.2 0.0
20/11:56am 33.9 26.3 0.5 12 16.8 NW 30 46 16 25 1014.2 1013.3 0.0
20/11:30am 33.6 27.1 0.3 12 16.6 WNW 24 35 13 19 1014.5 1013.6 0.0
20/11:00am 32.1 27.8 1.3 14 15.5 NNW 13 30 7 16 1014.9 1013.9 0.0
20/10:30am 31.6 27.7 0.9 14 15.3 NNW 11 22 6 12 1015.3 1014.4 0.0
20/10:00am 29.9 25.7 1.4 16 14.2 NW 13 20 7 11 1015.6 1014.7 0.0
20/09:30am 28.4 23.8 1.8 18 13.2 NW 15 20 8 11 1016.0 1015.1 0.0
20/09:00am 27.3 22.8 2.4 20 12.4 N 15 24 8 13 1016.1 1015.2 0.0
20/08:30am 26.1 21.2 2.1 21 11.8 N 17 24 9 13 1016.3 1015.4 0.0
20/08:00am 25.1 19.8 1.9 22 11.2 N 19 24 10 13 1016.6 1015.7 0.0
20/07:30am 24.7 20.7 2.8 24 10.8 NNE 13 20 7 11 1016.7 1015.8 0.0
20/07:00am 22.9 18.9 2.9 27 9.7 N 13 17 7 9 1016.8 1015.9 0.0
20/06:30am 18.5 14.5 2.8 35 7.4 NE 13 15 7 8 1016.8 1015.9 0.0
20/06:00am 14.3 12.6 1.6 42 5.6 CALM 0 0 0 0 1016.7 1015.8 0.0
20/05:30am 13.5 11.0 1.8 45 5.2 SSE 4 7 2 4 1016.7 1015.8 0.0
20/05:00am 14.3 10.8 1.2 41 5.7 ENE 9 11 5 6 1016.6 1015.7 0.0
20/04:30am 13.8 10.3 1.5 43 5.4 ENE 9 11 5 6 1016.7 1015.8 0.0
20/04:00am 14.7 13.0 1.6 41 5.8 CALM 0 0 0 0 1016.5 1015.6 0.0
20/03:30am 15.8 14.2 2.2 40 6.2 CALM 0 4 0 2 1016.5 1015.6 0.0
20/03:00am 15.9 11.8 2.0 39 6.3 SW 13 17 7 9 1016.3 1015.4 0.0
20/02:30am 18.9 15.9 2.3 33 7.8 SE 7 9 4 5 1016.0 1015.1 0.0
20/02:00am 19.3 17.3 2.2 32 8.0 N 2 6 1 3 1015.9 1015.0 0.0
20/01:30am 21.2 17.1 2.5 29 8.9 NE 13 17 7 9 1016.0 1015.1 0.0
20/01:00am 22.2 17.7 2.3 27 9.5 NNE 15 19 8 10 1016.4 1015.5 0.0
20/12:30am 23.0 18.2 2.5 26 9.9 NNE 17 20 9 11 1016.8 1015.9 0.0
20/12:00am 23.5 18.4 2.9 26 10.1 NNE 19 24 10 13 1016.8 1015.9 0.0
 
Date/Time
WST
Temp
°C
App
Temp
°C
Dew
Point
°C
Rel
Hum
%
Delta-T
°C
Wind Press
QNH
hPa
Press
MSL
hPa
Rain since
9am
mm
Dir  Spd
km/h
Gust
km/h
Spd
kts
Gust
kts
19/11:30pm 23.9 18.5 2.7 25 10.4 NE 20 26 11 14 1016.8 1015.9 0.0
19/11:00pm 23.8 18.4 2.6 25 10.3 NE 20 26 11 14 1017.0 1016.1 0.0
19/10:30pm 23.8 18.6 2.6 25 10.3 NE 19 26 10 14 1016.9 1016.0 0.0
19/10:00pm 24.3 18.9 2.5 24 10.6 ENE 20 30 11 16 1016.8 1015.9 0.0
19/09:30pm 24.5 19.1 2.6 24 10.7 ENE 20 30 11 16 1017.4 1016.5 0.0
19/09:00pm 25.2 19.8 2.6 23 11.1 ENE 20 28 11 15 1017.1 1016.2 0.0
19/08:30pm 24.8 19.6 2.3 23 11.0 NE 19 22 10 12 1017.7 1016.8 0.0
19/08:00pm 24.8 19.9 2.3 23 11.0 NE 17 22 9 12 1017.2 1016.3 0.0
19/07:30pm 25.7 21.1 1.8 21 11.6 NE 15 20 8 11 1017.0 1016.1 0.0
19/07:00pm 26.6 21.7 1.8 20 12.1 NE 17 20 9 11 1016.8 1015.9 0.0
19/06:30pm 27.9 22.5 2.2 19 12.8 NNE 20 26 11 14 1016.5 1015.6 0.0
19/06:00pm 28.8 22.5 1.3 17 13.5 NNE 24 33 13 18 1016.3 1015.4 0.0
19/05:30pm 29.5 23.3 1.9 17 13.8 NE 24 32 13 17 1016.0 1015.1 0.0

Other formats

Comma delimited format used in spreadsheet applications
http://www.bom.gov.au/fwo/IDW60801/IDW60801.95634.axf

JavaScript Object Notation format (JSON) in row-major order
http://www.bom.gov.au/fwo/IDW60801/IDW60801.95634.json

Data quality

Most of these data are generated automatically and are frequently updated. Quality checks on data are not normally performed. It is possible for incorrect values to appear. Refer to information at About Latest Weather Observations and please check the disclaimer before using these data.